sensor_id;sensor_type;location;lat;lon;timestamp;P1;durP1;ratioP1;P2;durP2;ratioP2
3791;SDS011;1911;53.768;11.474;2023-04-24T00:00:15;3.63;;;3.03;;
3791;SDS011;1911;53.768;11.474;2023-04-24T00:02:42;5.40;;;2.77;;
3791;SDS011;1911;53.768;11.474;2023-04-24T00:05:12;6.93;;;3.27;;
3791;SDS011;1911;53.768;11.474;2023-04-24T00:07:38;3.30;;;3.00;;
3791;SDS011;1911;53.768;11.474;2023-04-24T00:10:05;4.97;;;2.90;;
3791;SDS011;1911;53.768;11.474;2023-04-24T00:12:31;4.90;;;2.90;;
3791;SDS011;1911;53.768;11.474;2023-04-24T00:14:57;4.77;;;3.10;;
3791;SDS011;1911;53.768;11.474;2023-04-24T00:17:22;2.70;;;2.20;;
3791;SDS011;1911;53.768;11.474;2023-04-24T00:19:48;3.30;;;2.50;;
3791;SDS011;1911;53.768;11.474;2023-04-24T00:22:16;3.83;;;2.57;;
3791;SDS011;1911;53.768;11.474;2023-04-24T00:24:42;3.63;;;3.20;;
3791;SDS011;1911;53.768;11.474;2023-04-24T00:27:08;3.53;;;3.00;;
3791;SDS011;1911;53.768;11.474;2023-04-24T00:29:34;3.63;;;2.77;;
3791;SDS011;1911;53.768;11.474;2023-04-24T00:31:59;4.83;;;3.30;;
3791;SDS011;1911;53.768;11.474;2023-04-24T00:34:25;5.30;;;2.67;;
3791;SDS011;1911;53.768;11.474;2023-04-24T00:36:51;3.80;;;3.17;;
3791;SDS011;1911;53.768;11.474;2023-04-24T00:39:20;6.90;;;3.40;;
3791;SDS011;1911;53.768;11.474;2023-04-24T00:41:46;4.73;;;2.60;;
3791;SDS011;1911;53.768;11.474;2023-04-24T00:44:13;5.23;;;3.33;;
3791;SDS011;1911;53.768;11.474;2023-04-24T00:46:39;4.90;;;3.40;;
3791;SDS011;1911;53.768;11.474;2023-04-24T00:49:05;4.43;;;2.87;;
3791;SDS011;1911;53.768;11.474;2023-04-24T00:51:31;4.30;;;3.17;;
3791;SDS011;1911;53.768;11.474;2023-04-24T00:53:57;4.67;;;3.03;;
3791;SDS011;1911;53.768;11.474;2023-04-24T00:56:24;3.03;;;2.73;;
3791;SDS011;1911;53.768;11.474;2023-04-24T00:58:56;4.03;;;2.80;;
3791;SDS011;1911;53.768;11.474;2023-04-24T01:02:01;5.70;;;2.50;;
3791;SDS011;1911;53.768;11.474;2023-04-24T01:04:26;3.80;;;3.10;;
3791;SDS011;1911;53.768;11.474;2023-04-24T01:06:52;7.77;;;3.20;;
3791;SDS011;1911;53.768;11.474;2023-04-24T01:09:19;2.93;;;2.63;;
3791;SDS011;1911;53.768;11.474;2023-04-24T01:11:48;4.40;;;3.47;;
3791;SDS011;1911;53.768;11.474;2023-04-24T01:14:14;3.70;;;2.67;;
3791;SDS011;1911;53.768;11.474;2023-04-24T01:16:40;5.43;;;3.60;;
3791;SDS011;1911;53.768;11.474;2023-04-24T01:19:06;3.57;;;2.87;;
3791;SDS011;1911;53.768;11.474;2023-04-24T01:21:34;3.97;;;3.53;;
3791;SDS011;1911;53.768;11.474;2023-04-24T01:24:01;4.77;;;3.50;;
3791;SDS011;1911;53.768;11.474;2023-04-24T01:26:28;4.90;;;3.30;;
3791;SDS011;1911;53.768;11.474;2023-04-24T01:28:53;4.47;;;3.47;;
3791;SDS011;1911;53.768;11.474;2023-04-24T01:31:19;5.23;;;3.40;;
3791;SDS011;1911;53.768;11.474;2023-04-24T01:33:45;6.07;;;4.30;;
3791;SDS011;1911;53.768;11.474;2023-04-24T01:36:11;4.77;;;3.67;;
3791;SDS011;1911;53.768;11.474;2023-04-24T01:38:37;3.93;;;3.03;;
3791;SDS011;1911;53.768;11.474;2023-04-24T01:41:02;3.53;;;3.13;;
3791;SDS011;1911;53.768;11.474;2023-04-24T01:43:28;5.50;;;3.00;;
3791;SDS011;1911;53.768;11.474;2023-04-24T01:45:54;4.80;;;3.37;;
3791;SDS011;1911;53.768;11.474;2023-04-24T01:48:20;4.17;;;2.80;;
3791;SDS011;1911;53.768;11.474;2023-04-24T01:50:46;4.90;;;3.73;;
3791;SDS011;1911;53.768;11.474;2023-04-24T01:53:11;4.83;;;3.43;;
3791;SDS011;1911;53.768;11.474;2023-04-24T01:55:37;4.87;;;3.33;;
3791;SDS011;1911;53.768;11.474;2023-04-24T01:58:03;7.23;;;3.40;;
3791;SDS011;1911;53.768;11.474;2023-04-24T02:00:29;7.23;;;3.40;;
3791;SDS011;1911;53.768;11.474;2023-04-24T02:02:55;6.17;;;4.70;;
3791;SDS011;1911;53.768;11.474;2023-04-24T02:05:20;4.13;;;3.33;;
3791;SDS011;1911;53.768;11.474;2023-04-24T02:07:46;6.30;;;4.40;;
3791;SDS011;1911;53.768;11.474;2023-04-24T02:10:12;5.53;;;4.20;;
3791;SDS011;1911;53.768;11.474;2023-04-24T02:12:37;5.37;;;3.50;;
3791;SDS011;1911;53.768;11.474;2023-04-24T02:15:03;7.40;;;4.53;;
3791;SDS011;1911;53.768;11.474;2023-04-24T02:17:30;6.27;;;4.20;;
3791;SDS011;1911;53.768;11.474;2023-04-24T02:19:55;5.83;;;4.37;;
3791;SDS011;1911;53.768;11.474;2023-04-24T02:22:21;5.90;;;4.47;;
3791;SDS011;1911;53.768;11.474;2023-04-24T02:24:47;6.80;;;4.40;;
3791;SDS011;1911;53.768;11.474;2023-04-24T02:27:12;6.03;;;4.10;;
3791;SDS011;1911;53.768;11.474;2023-04-24T02:29:38;4.37;;;3.70;;
3791;SDS011;1911;53.768;11.474;2023-04-24T02:32:03;5.93;;;4.10;;
3791;SDS011;1911;53.768;11.474;2023-04-24T02:34:29;5.00;;;3.90;;
3791;SDS011;1911;53.768;11.474;2023-04-24T02:36:55;6.33;;;4.33;;
3791;SDS011;1911;53.768;11.474;2023-04-24T02:39:21;4.83;;;3.70;;
3791;SDS011;1911;53.768;11.474;2023-04-24T02:41:46;5.60;;;4.30;;
3791;SDS011;1911;53.768;11.474;2023-04-24T02:44:12;7.07;;;5.27;;
3791;SDS011;1911;53.768;11.474;2023-04-24T02:46:37;6.23;;;4.57;;
3791;SDS011;1911;53.768;11.474;2023-04-24T02:49:03;6.33;;;4.73;;
3791;SDS011;1911;53.768;11.474;2023-04-24T02:51:29;6.30;;;3.93;;
3791;SDS011;1911;53.768;11.474;2023-04-24T02:53:55;6.53;;;4.60;;
3791;SDS011;1911;53.768;11.474;2023-04-24T02:56:20;7.20;;;5.00;;
3791;SDS011;1911;53.768;11.474;2023-04-24T02:58:46;6.03;;;4.00;;
3791;SDS011;1911;53.768;11.474;2023-04-24T03:01:12;5.57;;;4.50;;
3791;SDS011;1911;53.768;11.474;2023-04-24T03:03:38;8.47;;;4.80;;
3791;SDS011;1911;53.768;11.474;2023-04-24T03:06:03;6.00;;;4.10;;
3791;SDS011;1911;53.768;11.474;2023-04-24T03:08:30;6.40;;;4.93;;
3791;SDS011;1911;53.768;11.474;2023-04-24T03:10:56;5.60;;;4.33;;
3791;SDS011;1911;53.768;11.474;2023-04-24T03:13:22;6.77;;;5.63;;
3791;SDS011;1911;53.768;11.474;2023-04-24T03:15:48;6.20;;;4.87;;
3791;SDS011;1911;53.768;11.474;2023-04-24T03:18:13;6.50;;;4.47;;
3791;SDS011;1911;53.768;11.474;2023-04-24T03:20:39;3.57;;;3.10;;
3791;SDS011;1911;53.768;11.474;2023-04-24T03:23:04;6.30;;;4.93;;
3791;SDS011;1911;53.768;11.474;2023-04-24T03:25:30;7.07;;;4.37;;
3791;SDS011;1911;53.768;11.474;2023-04-24T03:27:56;5.30;;;3.97;;
3791;SDS011;1911;53.768;11.474;2023-04-24T03:30:21;4.93;;;4.10;;
3791;SDS011;1911;53.768;11.474;2023-04-24T03:32:47;5.87;;;4.23;;
3791;SDS011;1911;53.768;11.474;2023-04-24T03:35:13;6.60;;;4.27;;
3791;SDS011;1911;53.768;11.474;2023-04-24T03:37:38;6.80;;;3.70;;
3791;SDS011;1911;53.768;11.474;2023-04-24T03:40:04;6.30;;;4.63;;
3791;SDS011;1911;53.768;11.474;2023-04-24T03:42:32;6.87;;;4.70;;
3791;SDS011;1911;53.768;11.474;2023-04-24T03:44:57;6.27;;;4.60;;
3791;SDS011;1911;53.768;11.474;2023-04-24T03:47:23;4.73;;;3.80;;
3791;SDS011;1911;53.768;11.474;2023-04-24T03:49:48;5.57;;;4.30;;
3791;SDS011;1911;53.768;11.474;2023-04-24T03:52:15;4.90;;;4.30;;
3791;SDS011;1911;53.768;11.474;2023-04-24T03:54:40;7.50;;;4.17;;
3791;SDS011;1911;53.768;11.474;2023-04-24T03:57:06;5.53;;;4.20;;
3791;SDS011;1911;53.768;11.474;2023-04-24T03:59:31;4.37;;;3.30;;
3791;SDS011;1911;53.768;11.474;2023-04-24T04:01:57;6.30;;;4.40;;
3791;SDS011;1911;53.768;11.474;2023-04-24T04:04:22;6.00;;;3.70;;
3791;SDS011;1911;53.768;11.474;2023-04-24T04:06:48;5.00;;;4.03;;
3791;SDS011;1911;53.768;11.474;2023-04-24T04:09:14;6.00;;;4.13;;
3791;SDS011;1911;53.768;11.474;2023-04-24T04:11:39;6.37;;;3.90;;
3791;SDS011;1911;53.768;11.474;2023-04-24T04:14:05;6.17;;;4.60;;
3791;SDS011;1911;53.768;11.474;2023-04-24T04:16:31;6.47;;;4.33;;
3791;SDS011;1911;53.768;11.474;2023-04-24T04:18:56;4.40;;;4.00;;
3791;SDS011;1911;53.768;11.474;2023-04-24T04:21:22;6.17;;;5.00;;
3791;SDS011;1911;53.768;11.474;2023-04-24T04:23:48;5.20;;;4.20;;
3791;SDS011;1911;53.768;11.474;2023-04-24T04:26:13;5.77;;;4.20;;
3791;SDS011;1911;53.768;11.474;2023-04-24T04:28:39;5.10;;;3.97;;
3791;SDS011;1911;53.768;11.474;2023-04-24T04:31:05;6.07;;;4.03;;
3791;SDS011;1911;53.768;11.474;2023-04-24T04:33:32;5.80;;;4.50;;
3791;SDS011;1911;53.768;11.474;2023-04-24T04:35:58;6.40;;;4.53;;
3791;SDS011;1911;53.768;11.474;2023-04-24T04:38:25;6.70;;;4.67;;
3791;SDS011;1911;53.768;11.474;2023-04-24T04:40:51;6.20;;;5.03;;
3791;SDS011;1911;53.768;11.474;2023-04-24T04:43:17;6.63;;;4.83;;
3791;SDS011;1911;53.768;11.474;2023-04-24T04:45:42;6.17;;;4.30;;
3791;SDS011;1911;53.768;11.474;2023-04-24T04:48:09;5.07;;;4.00;;
3791;SDS011;1911;53.768;11.474;2023-04-24T04:50:37;5.40;;;4.20;;
3791;SDS011;1911;53.768;11.474;2023-04-24T04:53:03;4.40;;;3.30;;
3791;SDS011;1911;53.768;11.474;2023-04-24T04:55:29;3.80;;;3.23;;
3791;SDS011;1911;53.768;11.474;2023-04-24T04:57:55;4.43;;;3.73;;
3791;SDS011;1911;53.768;11.474;2023-04-24T05:00:21;4.17;;;3.40;;
3791;SDS011;1911;53.768;11.474;2023-04-24T05:02:49;5.53;;;3.10;;
3791;SDS011;1911;53.768;11.474;2023-04-24T05:05:14;4.33;;;3.03;;
3791;SDS011;1911;53.768;11.474;2023-04-24T05:07:42;4.60;;;3.07;;
3791;SDS011;1911;53.768;11.474;2023-04-24T05:10:07;5.40;;;3.10;;
3791;SDS011;1911;53.768;11.474;2023-04-24T05:12:33;4.50;;;3.50;;
3791;SDS011;1911;53.768;11.474;2023-04-24T05:14:59;5.87;;;3.50;;
3791;SDS011;1911;53.768;11.474;2023-04-24T05:17:24;3.00;;;2.53;;
3791;SDS011;1911;53.768;11.474;2023-04-24T05:19:50;3.57;;;2.13;;
3791;SDS011;1911;53.768;11.474;2023-04-24T05:22:16;4.40;;;2.83;;
3791;SDS011;1911;53.768;11.474;2023-04-24T05:24:43;3.30;;;2.73;;
3791;SDS011;1911;53.768;11.474;2023-04-24T05:27:09;3.13;;;2.60;;
3791;SDS011;1911;53.768;11.474;2023-04-24T05:29:35;3.23;;;2.93;;
3791;SDS011;1911;53.768;11.474;2023-04-24T05:32:01;3.40;;;2.40;;
3791;SDS011;1911;53.768;11.474;2023-04-24T05:34:26;3.30;;;2.10;;
3791;SDS011;1911;53.768;11.474;2023-04-24T05:36:52;3.03;;;2.30;;
3791;SDS011;1911;53.768;11.474;2023-04-24T05:39:18;3.03;;;2.57;;
3791;SDS011;1911;53.768;11.474;2023-04-24T05:41:44;3.93;;;2.10;;
3791;SDS011;1911;53.768;11.474;2023-04-24T05:44:10;2.63;;;1.90;;
3791;SDS011;1911;53.768;11.474;2023-04-24T05:46:35;2.83;;;1.90;;
3791;SDS011;1911;53.768;11.474;2023-04-24T05:49:01;1.97;;;1.50;;
3791;SDS011;1911;53.768;11.474;2023-04-24T05:51:27;4.03;;;2.00;;
3791;SDS011;1911;53.768;11.474;2023-04-24T05:53:53;1.60;;;1.40;;
3791;SDS011;1911;53.768;11.474;2023-04-24T05:56:19;1.87;;;1.57;;
3791;SDS011;1911;53.768;11.474;2023-04-24T05:58:45;2.63;;;1.80;;
3791;SDS011;1911;53.768;11.474;2023-04-24T06:01:11;2.57;;;1.50;;
3791;SDS011;1911;53.768;11.474;2023-04-24T06:03:40;2.37;;;1.93;;
3791;SDS011;1911;53.768;11.474;2023-04-24T06:06:06;2.00;;;1.73;;
3791;SDS011;1911;53.768;11.474;2023-04-24T06:08:32;2.67;;;1.57;;
3791;SDS011;1911;53.768;11.474;2023-04-24T06:10:58;2.97;;;1.77;;
3791;SDS011;1911;53.768;11.474;2023-04-24T06:13:24;2.67;;;1.60;;
3791;SDS011;1911;53.768;11.474;2023-04-24T06:15:50;1.90;;;1.30;;
3791;SDS011;1911;53.768;11.474;2023-04-24T06:18:16;3.47;;;1.90;;
3791;SDS011;1911;53.768;11.474;2023-04-24T06:20:42;2.37;;;1.60;;
3791;SDS011;1911;53.768;11.474;2023-04-24T06:23:07;2.00;;;1.53;;
3791;SDS011;1911;53.768;11.474;2023-04-24T06:25:33;2.13;;;1.80;;
3791;SDS011;1911;53.768;11.474;2023-04-24T06:27:59;4.30;;;1.90;;
3791;SDS011;1911;53.768;11.474;2023-04-24T06:30:24;1.67;;;1.37;;
3791;SDS011;1911;53.768;11.474;2023-04-24T06:32:50;1.90;;;1.40;;
3791;SDS011;1911;53.768;11.474;2023-04-24T06:35:17;1.70;;;1.20;;
3791;SDS011;1911;53.768;11.474;2023-04-24T06:37:43;1.97;;;1.33;;
3791;SDS011;1911;53.768;11.474;2023-04-24T06:40:08;3.23;;;1.60;;
3791;SDS011;1911;53.768;11.474;2023-04-24T06:42:35;3.33;;;1.80;;
3791;SDS011;1911;53.768;11.474;2023-04-24T06:45:01;2.07;;;1.47;;
3791;SDS011;1911;53.768;11.474;2023-04-24T06:47:27;2.10;;;1.60;;
3791;SDS011;1911;53.768;11.474;2023-04-24T06:49:52;2.40;;;1.37;;
3791;SDS011;1911;53.768;11.474;2023-04-24T06:52:18;2.20;;;1.50;;
3791;SDS011;1911;53.768;11.474;2023-04-24T06:54:44;4.40;;;1.40;;
3791;SDS011;1911;53.768;11.474;2023-04-24T06:57:10;2.40;;;1.50;;
3791;SDS011;1911;53.768;11.474;2023-04-24T06:59:36;1.57;;;1.13;;
3791;SDS011;1911;53.768;11.474;2023-04-24T07:02:02;1.73;;;1.23;;
3791;SDS011;1911;53.768;11.474;2023-04-24T07:04:28;1.40;;;1.10;;
3791;SDS011;1911;53.768;11.474;2023-04-24T07:06:54;3.87;;;1.20;;
3791;SDS011;1911;53.768;11.474;2023-04-24T07:09:21;1.93;;;1.03;;
3791;SDS011;1911;53.768;11.474;2023-04-24T07:11:47;1.77;;;1.37;;
3791;SDS011;1911;53.768;11.474;2023-04-24T07:14:13;5.37;;;1.40;;
3791;SDS011;1911;53.768;11.474;2023-04-24T07:16:38;1.50;;;0.90;;
3791;SDS011;1911;53.768;11.474;2023-04-24T07:19:04;1.60;;;1.10;;
3791;SDS011;1911;53.768;11.474;2023-04-24T07:21:30;2.27;;;1.27;;
3791;SDS011;1911;53.768;11.474;2023-04-24T07:23:57;2.63;;;1.00;;
3791;SDS011;1911;53.768;11.474;2023-04-24T07:26:23;1.80;;;0.90;;
3791;SDS011;1911;53.768;11.474;2023-04-24T07:28:49;1.30;;;0.90;;
3791;SDS011;1911;53.768;11.474;2023-04-24T07:31:14;2.20;;;1.23;;
3791;SDS011;1911;53.768;11.474;2023-04-24T07:33:40;3.27;;;1.80;;
3791;SDS011;1911;53.768;11.474;2023-04-24T07:36:05;1.50;;;1.10;;
3791;SDS011;1911;53.768;11.474;2023-04-24T07:38:31;1.40;;;1.03;;
3791;SDS011;1911;53.768;11.474;2023-04-24T07:40:57;2.30;;;1.70;;
3791;SDS011;1911;53.768;11.474;2023-04-24T07:43:22;1.93;;;1.00;;
3791;SDS011;1911;53.768;11.474;2023-04-24T07:45:49;2.10;;;1.10;;
3791;SDS011;1911;53.768;11.474;2023-04-24T07:48:15;2.63;;;1.30;;
3791;SDS011;1911;53.768;11.474;2023-04-24T07:50:42;2.50;;;1.20;;
3791;SDS011;1911;53.768;11.474;2023-04-24T07:53:08;1.50;;;0.90;;
3791;SDS011;1911;53.768;11.474;2023-04-24T07:55:34;2.57;;;1.27;;
3791;SDS011;1911;53.768;11.474;2023-04-24T07:58:00;1.50;;;1.10;;
3791;SDS011;1911;53.768;11.474;2023-04-24T08:00:26;2.63;;;1.30;;
3791;SDS011;1911;53.768;11.474;2023-04-24T08:02:51;1.50;;;1.10;;
3791;SDS011;1911;53.768;11.474;2023-04-24T08:05:17;3.60;;;1.60;;
3791;SDS011;1911;53.768;11.474;2023-04-24T08:07:43;2.17;;;1.00;;
3791;SDS011;1911;53.768;11.474;2023-04-24T08:10:11;1.90;;;0.90;;
3791;SDS011;1911;53.768;11.474;2023-04-24T08:12:36;1.63;;;1.10;;
3791;SDS011;1911;53.768;11.474;2023-04-24T08:15:03;1.43;;;0.70;;
3791;SDS011;1911;53.768;11.474;2023-04-24T08:17:29;1.30;;;0.77;;
3791;SDS011;1911;53.768;11.474;2023-04-24T08:19:55;1.40;;;0.83;;
3791;SDS011;1911;53.768;11.474;2023-04-24T08:22:26;1.60;;;0.87;;
3791;SDS011;1911;53.768;11.474;2023-04-24T08:24:55;1.20;;;0.70;;
3791;SDS011;1911;53.768;11.474;2023-04-24T08:27:22;2.03;;;1.00;;
3791;SDS011;1911;53.768;11.474;2023-04-24T08:29:48;1.20;;;0.70;;
3791;SDS011;1911;53.768;11.474;2023-04-24T08:32:14;1.10;;;0.70;;
3791;SDS011;1911;53.768;11.474;2023-04-24T08:34:39;1.40;;;0.77;;
3791;SDS011;1911;53.768;11.474;2023-04-24T08:37:05;2.03;;;1.00;;
3791;SDS011;1911;53.768;11.474;2023-04-24T08:39:30;1.30;;;0.80;;
3791;SDS011;1911;53.768;11.474;2023-04-24T08:41:56;2.50;;;0.97;;
3791;SDS011;1911;53.768;11.474;2023-04-24T08:44:22;1.97;;;1.20;;
3791;SDS011;1911;53.768;11.474;2023-04-24T08:46:48;1.93;;;0.77;;
3791;SDS011;1911;53.768;11.474;2023-04-24T08:49:14;1.20;;;0.80;;
3791;SDS011;1911;53.768;11.474;2023-04-24T08:51:41;2.13;;;1.07;;
3791;SDS011;1911;53.768;11.474;2023-04-24T08:54:07;1.97;;;1.00;;
3791;SDS011;1911;53.768;11.474;2023-04-24T08:56:33;2.17;;;1.67;;
3791;SDS011;1911;53.768;11.474;2023-04-24T08:59:02;1.53;;;1.07;;
3791;SDS011;1911;53.768;11.474;2023-04-24T09:01:29;1.30;;;1.00;;
3791;SDS011;1911;53.768;11.474;2023-04-24T09:03:58;1.60;;;1.00;;
3791;SDS011;1911;53.768;11.474;2023-04-24T09:06:29;1.20;;;0.80;;
3791;SDS011;1911;53.768;11.474;2023-04-24T09:08:55;1.50;;;1.00;;
3791;SDS011;1911;53.768;11.474;2023-04-24T09:11:25;2.23;;;0.90;;
3791;SDS011;1911;53.768;11.474;2023-04-24T09:13:52;2.00;;;1.03;;
3791;SDS011;1911;53.768;11.474;2023-04-24T09:16:19;3.93;;;0.97;;
3791;SDS011;1911;53.768;11.474;2023-04-24T09:18:45;1.40;;;0.90;;
3791;SDS011;1911;53.768;11.474;2023-04-24T09:21:10;1.80;;;1.17;;
3791;SDS011;1911;53.768;11.474;2023-04-24T09:23:36;3.17;;;1.20;;
3791;SDS011;1911;53.768;11.474;2023-04-24T09:26:03;1.70;;;1.10;;
3791;SDS011;1911;53.768;11.474;2023-04-24T09:28:32;1.53;;;1.03;;
3791;SDS011;1911;53.768;11.474;2023-04-24T09:31:08;1.40;;;0.87;;
3791;SDS011;1911;53.768;11.474;2023-04-24T09:33:34;2.20;;;0.90;;
3791;SDS011;1911;53.768;11.474;2023-04-24T09:36:01;1.43;;;0.70;;
3791;SDS011;1911;53.768;11.474;2023-04-24T09:38:37;1.43;;;1.10;;
3791;SDS011;1911;53.768;11.474;2023-04-24T09:41:04;1.30;;;0.80;;
3791;SDS011;1911;53.768;11.474;2023-04-24T09:43:31;2.07;;;1.00;;
3791;SDS011;1911;53.768;11.474;2023-04-24T09:45:58;1.63;;;1.00;;
3791;SDS011;1911;53.768;11.474;2023-04-24T09:48:36;2.20;;;1.20;;
3791;SDS011;1911;53.768;11.474;2023-04-24T09:51:03;1.20;;;0.80;;
3791;SDS011;1911;53.768;11.474;2023-04-24T09:53:32;1.40;;;1.00;;
3791;SDS011;1911;53.768;11.474;2023-04-24T09:56:07;1.63;;;1.00;;
3791;SDS011;1911;53.768;11.474;2023-04-24T09:58:35;1.47;;;0.90;;
3791;SDS011;1911;53.768;11.474;2023-04-24T10:01:01;1.30;;;0.73;;
3791;SDS011;1911;53.768;11.474;2023-04-24T10:03:31;1.93;;;1.10;;
3791;SDS011;1911;53.768;11.474;2023-04-24T10:05:58;1.80;;;1.10;;
3791;SDS011;1911;53.768;11.474;2023-04-24T10:08:25;2.00;;;1.07;;
3791;SDS011;1911;53.768;11.474;2023-04-24T10:10:51;2.00;;;1.40;;
3791;SDS011;1911;53.768;11.474;2023-04-24T10:13:17;1.70;;;1.10;;
3791;SDS011;1911;53.768;11.474;2023-04-24T10:15:43;2.50;;;1.10;;
3791;SDS011;1911;53.768;11.474;2023-04-24T10:18:11;1.37;;;0.80;;
3791;SDS011;1911;53.768;11.474;2023-04-24T10:20:37;1.30;;;0.90;;
3791;SDS011;1911;53.768;11.474;2023-04-24T10:23:05;2.20;;;1.17;;
3791;SDS011;1911;53.768;11.474;2023-04-24T10:25:32;1.60;;;1.00;;
3791;SDS011;1911;53.768;11.474;2023-04-24T10:27:59;1.80;;;1.40;;
3791;SDS011;1911;53.768;11.474;2023-04-24T10:30:30;1.50;;;0.93;;
3791;SDS011;1911;53.768;11.474;2023-04-24T10:33:00;1.93;;;1.20;;
3791;SDS011;1911;53.768;11.474;2023-04-24T10:35:34;2.03;;;1.10;;
3791;SDS011;1911;53.768;11.474;2023-04-24T10:40:32;1.57;;;1.13;;
3791;SDS011;1911;53.768;11.474;2023-04-24T10:42:59;1.60;;;1.00;;
3791;SDS011;1911;53.768;11.474;2023-04-24T10:45:31;2.40;;;1.33;;
3791;SDS011;1911;53.768;11.474;2023-04-24T10:50:22;1.37;;;0.93;;
3791;SDS011;1911;53.768;11.474;2023-04-24T10:52:48;2.13;;;1.10;;
3791;SDS011;1911;53.768;11.474;2023-04-24T10:58:08;1.50;;;1.10;;
3791;SDS011;1911;53.768;11.474;2023-04-24T11:00:36;3.10;;;1.20;;
3791;SDS011;1911;53.768;11.474;2023-04-24T11:03:06;1.47;;;1.03;;
3791;SDS011;1911;53.768;11.474;2023-04-24T11:05:57;2.07;;;0.90;;
3791;SDS011;1911;53.768;11.474;2023-04-24T11:08:28;2.90;;;1.33;;
3791;SDS011;1911;53.768;11.474;2023-04-24T11:11:03;1.57;;;1.00;;
3791;SDS011;1911;53.768;11.474;2023-04-24T11:14:20;1.97;;;1.03;;
3791;SDS011;1911;53.768;11.474;2023-04-24T11:16:25;1.53;;;1.20;;
3791;SDS011;1911;53.768;11.474;2023-04-24T11:19:02;1.30;;;0.93;;
3791;SDS011;1911;53.768;11.474;2023-04-24T11:29:45;3.17;;;1.63;;
3791;SDS011;1911;53.768;11.474;2023-04-24T11:37:46;2.30;;;1.87;;
3791;SDS011;1911;53.768;11.474;2023-04-24T11:40:16;2.63;;;1.40;;
3791;SDS011;1911;53.768;11.474;2023-04-24T11:42:45;2.63;;;1.93;;
3791;SDS011;1911;53.768;11.474;2023-04-24T11:45:13;1.97;;;1.77;;
3791;SDS011;1911;53.768;11.474;2023-04-24T11:47:43;2.37;;;2.17;;
3791;SDS011;1911;53.768;11.474;2023-04-24T11:50:11;2.10;;;1.67;;
3791;SDS011;1911;53.768;11.474;2023-04-24T11:52:41;2.40;;;1.80;;
3791;SDS011;1911;53.768;11.474;2023-04-24T11:55:29;2.40;;;1.70;;
3791;SDS011;1911;53.768;11.474;2023-04-24T11:57:55;3.13;;;1.90;;
3791;SDS011;1911;53.768;11.474;2023-04-24T12:03:02;2.27;;;1.83;;
3791;SDS011;1911;53.768;11.474;2023-04-24T12:05:30;3.80;;;2.03;;
3791;SDS011;1911;53.768;11.474;2023-04-24T12:07:56;1.60;;;1.40;;
3791;SDS011;1911;53.768;11.474;2023-04-24T12:10:22;5.80;;;2.10;;
3791;SDS011;1911;53.768;11.474;2023-04-24T12:12:49;3.50;;;2.13;;
3791;SDS011;1911;53.768;11.474;2023-04-24T12:15:16;3.57;;;2.53;;
3791;SDS011;1911;53.768;11.474;2023-04-24T12:17:43;3.83;;;2.33;;
3791;SDS011;1911;53.768;11.474;2023-04-24T12:20:10;4.33;;;3.20;;
3791;SDS011;1911;53.768;11.474;2023-04-24T12:22:46;4.03;;;2.97;;
3791;SDS011;1911;53.768;11.474;2023-04-24T12:25:14;4.40;;;3.50;;
3791;SDS011;1911;53.768;11.474;2023-04-24T12:27:41;4.50;;;3.33;;
3791;SDS011;1911;53.768;11.474;2023-04-24T12:30:10;4.93;;;3.20;;
3791;SDS011;1911;53.768;11.474;2023-04-24T12:32:40;4.10;;;2.90;;
3791;SDS011;1911;53.768;11.474;2023-04-24T12:35:07;3.07;;;2.73;;
3791;SDS011;1911;53.768;11.474;2023-04-24T12:37:33;5.77;;;3.40;;
3791;SDS011;1911;53.768;11.474;2023-04-24T12:42:28;4.37;;;3.43;;
3791;SDS011;1911;53.768;11.474;2023-04-24T12:44:59;6.43;;;3.47;;
3791;SDS011;1911;53.768;11.474;2023-04-24T12:47:28;4.20;;;3.53;;
3791;SDS011;1911;53.768;11.474;2023-04-24T12:49:54;4.03;;;3.40;;
3791;SDS011;1911;53.768;11.474;2023-04-24T12:52:21;5.83;;;3.47;;
3791;SDS011;1911;53.768;11.474;2023-04-24T12:54:48;4.93;;;3.60;;
3791;SDS011;1911;53.768;11.474;2023-04-24T12:57:14;3.90;;;3.30;;
3791;SDS011;1911;53.768;11.474;2023-04-24T12:59:40;5.43;;;3.10;;
3791;SDS011;1911;53.768;11.474;2023-04-24T13:02:06;6.60;;;3.20;;
3791;SDS011;1911;53.768;11.474;2023-04-24T13:04:32;2.90;;;2.50;;
3791;SDS011;1911;53.768;11.474;2023-04-24T13:06:57;4.03;;;2.23;;
3791;SDS011;1911;53.768;11.474;2023-04-24T13:09:23;7.43;;;3.60;;
3791;SDS011;1911;53.768;11.474;2023-04-24T13:11:49;6.00;;;3.30;;
3791;SDS011;1911;53.768;11.474;2023-04-24T13:14:15;4.70;;;3.27;;
3791;SDS011;1911;53.768;11.474;2023-04-24T13:16:41;2.80;;;2.37;;
3791;SDS011;1911;53.768;11.474;2023-04-24T13:19:06;3.30;;;2.97;;
3791;SDS011;1911;53.768;11.474;2023-04-24T13:21:32;5.10;;;2.97;;
3791;SDS011;1911;53.768;11.474;2023-04-24T13:23:57;3.97;;;3.20;;
3791;SDS011;1911;53.768;11.474;2023-04-24T13:26:23;4.57;;;3.30;;
3791;SDS011;1911;53.768;11.474;2023-04-24T13:28:49;6.70;;;3.13;;
3791;SDS011;1911;53.768;11.474;2023-04-24T13:31:15;4.20;;;3.73;;
3791;SDS011;1911;53.768;11.474;2023-04-24T13:33:41;4.80;;;3.50;;
3791;SDS011;1911;53.768;11.474;2023-04-24T13:36:06;3.83;;;3.43;;
3791;SDS011;1911;53.768;11.474;2023-04-24T13:38:32;4.03;;;3.20;;
3791;SDS011;1911;53.768;11.474;2023-04-24T13:40:59;4.07;;;3.20;;
3791;SDS011;1911;53.768;11.474;2023-04-24T13:43:27;4.10;;;3.30;;
3791;SDS011;1911;53.768;11.474;2023-04-24T13:45:52;3.83;;;3.00;;
3791;SDS011;1911;53.768;11.474;2023-04-24T13:48:18;4.10;;;3.63;;
3791;SDS011;1911;53.768;11.474;2023-04-24T13:50:44;5.40;;;3.90;;
3791;SDS011;1911;53.768;11.474;2023-04-24T13:53:13;5.40;;;4.13;;
3791;SDS011;1911;53.768;11.474;2023-04-24T13:55:38;4.27;;;3.13;;
3791;SDS011;1911;53.768;11.474;2023-04-24T13:58:04;4.87;;;4.03;;
3791;SDS011;1911;53.768;11.474;2023-04-24T14:00:30;4.63;;;3.50;;
3791;SDS011;1911;53.768;11.474;2023-04-24T14:02:56;4.40;;;3.33;;
3791;SDS011;1911;53.768;11.474;2023-04-24T14:05:21;4.20;;;3.23;;
3791;SDS011;1911;53.768;11.474;2023-04-24T14:07:47;3.93;;;3.20;;
3791;SDS011;1911;53.768;11.474;2023-04-24T14:10:12;3.83;;;3.40;;
3791;SDS011;1911;53.768;11.474;2023-04-24T14:12:38;4.53;;;2.70;;
3791;SDS011;1911;53.768;11.474;2023-04-24T14:15:04;2.97;;;2.37;;
3791;SDS011;1911;53.768;11.474;2023-04-24T14:17:30;3.17;;;2.70;;
3791;SDS011;1911;53.768;11.474;2023-04-24T14:19:58;3.60;;;2.90;;
3791;SDS011;1911;53.768;11.474;2023-04-24T14:22:25;3.40;;;2.23;;
3791;SDS011;1911;53.768;11.474;2023-04-24T14:24:51;3.13;;;2.80;;
3791;SDS011;1911;53.768;11.474;2023-04-24T14:27:16;3.73;;;2.97;;
3791;SDS011;1911;53.768;11.474;2023-04-24T14:29:42;3.10;;;2.57;;
3791;SDS011;1911;53.768;11.474;2023-04-24T14:32:07;4.93;;;2.50;;
3791;SDS011;1911;53.768;11.474;2023-04-24T14:34:35;2.60;;;2.07;;
3791;SDS011;1911;53.768;11.474;2023-04-24T14:37:01;2.50;;;2.10;;
3791;SDS011;1911;53.768;11.474;2023-04-24T14:42:02;3.47;;;2.90;;
3791;SDS011;1911;53.768;11.474;2023-04-24T14:44:28;2.87;;;2.57;;
3791;SDS011;1911;53.768;11.474;2023-04-24T14:46:53;4.20;;;2.67;;
3791;SDS011;1911;53.768;11.474;2023-04-24T14:49:19;2.60;;;2.20;;
3791;SDS011;1911;53.768;11.474;2023-04-24T14:51:45;5.10;;;3.00;;
3791;SDS011;1911;53.768;11.474;2023-04-24T14:54:11;3.67;;;2.60;;
3791;SDS011;1911;53.768;11.474;2023-04-24T14:56:37;4.03;;;2.53;;
3791;SDS011;1911;53.768;11.474;2023-04-24T14:59:05;3.20;;;2.80;;
3791;SDS011;1911;53.768;11.474;2023-04-24T15:01:32;3.33;;;2.30;;
3791;SDS011;1911;53.768;11.474;2023-04-24T15:03:57;5.30;;;2.73;;
3791;SDS011;1911;53.768;11.474;2023-04-24T15:06:23;3.40;;;3.10;;
3791;SDS011;1911;53.768;11.474;2023-04-24T15:08:49;3.30;;;2.57;;
3791;SDS011;1911;53.768;11.474;2023-04-24T15:11:15;3.40;;;3.10;;
3791;SDS011;1911;53.768;11.474;2023-04-24T15:13:41;4.73;;;2.57;;
3791;SDS011;1911;53.768;11.474;2023-04-24T15:16:06;2.77;;;2.40;;
3791;SDS011;1911;53.768;11.474;2023-04-24T15:18:32;5.03;;;2.87;;
3791;SDS011;1911;53.768;11.474;2023-04-24T15:20:57;3.10;;;2.73;;
3791;SDS011;1911;53.768;11.474;2023-04-24T15:23:23;4.13;;;2.50;;
3791;SDS011;1911;53.768;11.474;2023-04-24T15:25:49;3.00;;;2.70;;